sensor_id;sensor_type;location;lat;lon;timestamp;temperature;humidity
7360;DHT22;3720;48.274;7.796;2022-12-07T00:02:23;5.50;99.90
7360;DHT22;3720;48.274;7.796;2022-12-07T00:04:57;5.50;99.90
7360;DHT22;3720;48.274;7.796;2022-12-07T00:07:29;5.50;99.90
7360;DHT22;3720;48.274;7.796;2022-12-07T00:10:01;5.50;99.90
7360;DHT22;3720;48.274;7.796;2022-12-07T00:12:32;5.40;99.90
7360;DHT22;3720;48.274;7.796;2022-12-07T00:15:05;5.40;99.90
7360;DHT22;3720;48.274;7.796;2022-12-07T00:17:37;5.40;99.90
7360;DHT22;3720;48.274;7.796;2022-12-07T00:20:11;5.30;99.90
7360;DHT22;3720;48.274;7.796;2022-12-07T00:22:43;5.30;99.90
7360;DHT22;3720;48.274;7.796;2022-12-07T00:25:15;5.40;99.90
7360;DHT22;3720;48.274;7.796;2022-12-07T00:27:47;5.30;99.90
7360;DHT22;3720;48.274;7.796;2022-12-07T00:30:19;5.30;99.90
7360;DHT22;3720;48.274;7.796;2022-12-07T00:32:51;5.30;99.90
7360;DHT22;3720;48.274;7.796;2022-12-07T00:35:24;5.30;99.90
7360;DHT22;3720;48.274;7.796;2022-12-07T00:37:56;5.20;99.90
7360;DHT22;3720;48.274;7.796;2022-12-07T00:40:28;5.20;99.90
7360;DHT22;3720;48.274;7.796;2022-12-07T00:43:00;5.20;99.90
7360;DHT22;3720;48.274;7.796;2022-12-07T00:45:32;5.20;99.90
7360;DHT22;3720;48.274;7.796;2022-12-07T00:48:04;5.20;99.90
7360;DHT22;3720;48.274;7.796;2022-12-07T00:50:37;5.20;99.90
7360;DHT22;3720;48.274;7.796;2022-12-07T00:53:09;5.20;99.90
7360;DHT22;3720;48.274;7.796;2022-12-07T00:55:41;5.20;99.90
7360;DHT22;3720;48.274;7.796;2022-12-07T00:58:13;5.20;99.90
7360;DHT22;3720;48.274;7.796;2022-12-07T01:00:46;5.20;99.90
7360;DHT22;3720;48.274;7.796;2022-12-07T01:03:18;5.10;99.90
7360;DHT22;3720;48.274;7.796;2022-12-07T01:05:52;5.10;99.90
7360;DHT22;3720;48.274;7.796;2022-12-07T01:08:26;5.20;99.90
7360;DHT22;3720;48.274;7.796;2022-12-07T01:10:59;5.20;99.90
7360;DHT22;3720;48.274;7.796;2022-12-07T01:13:32;5.20;99.90
7360;DHT22;3720;48.274;7.796;2022-12-07T01:16:06;5.10;99.90
7360;DHT22;3720;48.274;7.796;2022-12-07T01:18:39;5.20;99.90
7360;DHT22;3720;48.274;7.796;2022-12-07T01:21:14;5.20;99.90
7360;DHT22;3720;48.274;7.796;2022-12-07T01:23:47;5.20;99.90
7360;DHT22;3720;48.274;7.796;2022-12-07T01:26:21;5.10;99.90
7360;DHT22;3720;48.274;7.796;2022-12-07T01:28:53;5.10;99.90
7360;DHT22;3720;48.274;7.796;2022-12-07T01:31:26;5.10;99.90
7360;DHT22;3720;48.274;7.796;2022-12-07T01:33:59;5.10;99.90
7360;DHT22;3720;48.274;7.796;2022-12-07T01:36:34;5.10;99.90
7360;DHT22;3720;48.274;7.796;2022-12-07T01:39:09;5.10;99.90
7360;DHT22;3720;48.274;7.796;2022-12-07T01:41:42;5.10;99.90
7360;DHT22;3720;48.274;7.796;2022-12-07T01:44:20;5.10;99.90
7360;DHT22;3720;48.274;7.796;2022-12-07T01:46:53;5.10;99.90
7360;DHT22;3720;48.274;7.796;2022-12-07T01:49:29;5.10;99.90
7360;DHT22;3720;48.274;7.796;2022-12-07T01:52:14;5.10;99.90
7360;DHT22;3720;48.274;7.796;2022-12-07T01:54:49;5.10;99.90
7360;DHT22;3720;48.274;7.796;2022-12-07T01:57:22;5.00;99.90
7360;DHT22;3720;48.274;7.796;2022-12-07T01:59:55;5.10;99.90
7360;DHT22;3720;48.274;7.796;2022-12-07T02:02:31;5.10;99.90
7360;DHT22;3720;48.274;7.796;2022-12-07T02:05:05;5.10;99.90
7360;DHT22;3720;48.274;7.796;2022-12-07T02:07:40;5.10;99.90
7360;DHT22;3720;48.274;7.796;2022-12-07T02:10:13;5.00;99.90
7360;DHT22;3720;48.274;7.796;2022-12-07T02:12:47;5.00;99.90
7360;DHT22;3720;48.274;7.796;2022-12-07T02:15:22;5.00;99.90
7360;DHT22;3720;48.274;7.796;2022-12-07T02:18:01;5.00;99.90
7360;DHT22;3720;48.274;7.796;2022-12-07T02:20:40;4.90;99.90
7360;DHT22;3720;48.274;7.796;2022-12-07T02:27:04;4.90;99.90
7360;DHT22;3720;48.274;7.796;2022-12-07T02:29:45;4.90;99.90
7360;DHT22;3720;48.274;7.796;2022-12-07T02:32:23;4.90;99.90
7360;DHT22;3720;48.274;7.796;2022-12-07T02:35:00;4.90;99.90
7360;DHT22;3720;48.274;7.796;2022-12-07T02:37:40;4.90;99.90
7360;DHT22;3720;48.274;7.796;2022-12-07T02:40:18;4.90;99.90
7360;DHT22;3720;48.274;7.796;2022-12-07T02:42:56;4.90;99.90
7360;DHT22;3720;48.274;7.796;2022-12-07T02:45:35;4.90;99.90
7360;DHT22;3720;48.274;7.796;2022-12-07T02:48:10;4.90;99.90
7360;DHT22;3720;48.274;7.796;2022-12-07T02:50:44;4.90;99.90
7360;DHT22;3720;48.274;7.796;2022-12-07T02:53:34;4.90;99.90
7360;DHT22;3720;48.274;7.796;2022-12-07T02:56:10;5.00;99.90
7360;DHT22;3720;48.274;7.796;2022-12-07T02:58:54;4.90;99.90
7360;DHT22;3720;48.274;7.796;2022-12-07T03:01:40;4.90;99.90
7360;DHT22;3720;48.274;7.796;2022-12-07T03:04:24;4.90;99.90
7360;DHT22;3720;48.274;7.796;2022-12-07T03:07:06;4.90;99.90
7360;DHT22;3720;48.274;7.796;2022-12-07T03:09:45;4.90;99.90
7360;DHT22;3720;48.274;7.796;2022-12-07T03:12:27;4.80;99.90
7360;DHT22;3720;48.274;7.796;2022-12-07T03:15:05;4.80;99.90
7360;DHT22;3720;48.274;7.796;2022-12-07T03:17:42;4.80;99.90
7360;DHT22;3720;48.274;7.796;2022-12-07T03:20:20;4.70;99.90
7360;DHT22;3720;48.274;7.796;2022-12-07T03:22:54;4.70;99.90
7360;DHT22;3720;48.274;7.796;2022-12-07T03:25:26;4.70;99.90
7360;DHT22;3720;48.274;7.796;2022-12-07T03:28:03;4.70;99.90
7360;DHT22;3720;48.274;7.796;2022-12-07T03:30:39;4.70;99.90
7360;DHT22;3720;48.274;7.796;2022-12-07T03:33:19;4.70;99.90
7360;DHT22;3720;48.274;7.796;2022-12-07T03:35:58;4.80;99.90
7360;DHT22;3720;48.274;7.796;2022-12-07T03:38:36;4.70;99.90
7360;DHT22;3720;48.274;7.796;2022-12-07T03:41:14;4.60;99.90
7360;DHT22;3720;48.274;7.796;2022-12-07T03:43:46;4.60;99.90
7360;DHT22;3720;48.274;7.796;2022-12-07T03:46:22;4.60;99.90
7360;DHT22;3720;48.274;7.796;2022-12-07T03:49:06;4.60;99.90
7360;DHT22;3720;48.274;7.796;2022-12-07T03:51:43;4.60;99.90
7360;DHT22;3720;48.274;7.796;2022-12-07T03:54:21;4.60;99.90
7360;DHT22;3720;48.274;7.796;2022-12-07T03:56:54;4.60;99.90
7360;DHT22;3720;48.274;7.796;2022-12-07T03:59:28;4.60;99.90
7360;DHT22;3720;48.274;7.796;2022-12-07T04:02:04;4.60;99.90
7360;DHT22;3720;48.274;7.796;2022-12-07T04:04:38;4.60;99.90
7360;DHT22;3720;48.274;7.796;2022-12-07T04:07:10;4.60;99.90
7360;DHT22;3720;48.274;7.796;2022-12-07T04:09:43;4.60;99.90
7360;DHT22;3720;48.274;7.796;2022-12-07T04:12:15;4.60;99.90
7360;DHT22;3720;48.274;7.796;2022-12-07T04:14:47;4.60;99.90
7360;DHT22;3720;48.274;7.796;2022-12-07T04:17:19;4.60;99.90
7360;DHT22;3720;48.274;7.796;2022-12-07T04:19:52;4.60;99.90
7360;DHT22;3720;48.274;7.796;2022-12-07T04:22:24;4.60;99.90
7360;DHT22;3720;48.274;7.796;2022-12-07T04:24:56;4.50;99.90
7360;DHT22;3720;48.274;7.796;2022-12-07T04:27:28;4.50;99.90
7360;DHT22;3720;48.274;7.796;2022-12-07T04:30:00;4.50;99.90
7360;DHT22;3720;48.274;7.796;2022-12-07T04:32:32;4.50;99.90
7360;DHT22;3720;48.274;7.796;2022-12-07T04:35:07;4.50;99.90
7360;DHT22;3720;48.274;7.796;2022-12-07T04:37:39;4.50;99.90
7360;DHT22;3720;48.274;7.796;2022-12-07T04:40:12;4.40;99.90
7360;DHT22;3720;48.274;7.796;2022-12-07T04:42:44;4.40;99.90
7360;DHT22;3720;48.274;7.796;2022-12-07T04:45:16;4.40;99.90
7360;DHT22;3720;48.274;7.796;2022-12-07T04:47:48;4.40;99.90
7360;DHT22;3720;48.274;7.796;2022-12-07T04:50:21;4.30;99.90
7360;DHT22;3720;48.274;7.796;2022-12-07T04:52:53;4.30;99.90
7360;DHT22;3720;48.274;7.796;2022-12-07T04:55:25;4.20;99.90
7360;DHT22;3720;48.274;7.796;2022-12-07T04:57:58;4.20;99.90
7360;DHT22;3720;48.274;7.796;2022-12-07T05:00:29;4.20;99.90
7360;DHT22;3720;48.274;7.796;2022-12-07T05:03:02;4.20;99.90
7360;DHT22;3720;48.274;7.796;2022-12-07T05:05:35;4.20;99.90
7360;DHT22;3720;48.274;7.796;2022-12-07T05:08:07;4.20;99.90
7360;DHT22;3720;48.274;7.796;2022-12-07T05:10:39;4.20;99.90
7360;DHT22;3720;48.274;7.796;2022-12-07T05:13:11;4.30;99.90
7360;DHT22;3720;48.274;7.796;2022-12-07T05:15:43;4.30;99.90
7360;DHT22;3720;48.274;7.796;2022-12-07T05:18:16;4.20;99.90
7360;DHT22;3720;48.274;7.796;2022-12-07T05:20:49;4.20;99.90
7360;DHT22;3720;48.274;7.796;2022-12-07T05:23:22;4.10;99.90
7360;DHT22;3720;48.274;7.796;2022-12-07T05:25:54;4.10;99.90
7360;DHT22;3720;48.274;7.796;2022-12-07T05:28:26;4.00;99.90
7360;DHT22;3720;48.274;7.796;2022-12-07T05:30:58;4.00;99.90
7360;DHT22;3720;48.274;7.796;2022-12-07T05:33:29;4.00;99.90
7360;DHT22;3720;48.274;7.796;2022-12-07T05:36:03;3.90;99.90
7360;DHT22;3720;48.274;7.796;2022-12-07T05:38:37;3.90;99.90
7360;DHT22;3720;48.274;7.796;2022-12-07T05:41:12;3.90;99.90
7360;DHT22;3720;48.274;7.796;2022-12-07T05:44:05;3.90;99.90
7360;DHT22;3720;48.274;7.796;2022-12-07T05:46:37;3.80;99.90
7360;DHT22;3720;48.274;7.796;2022-12-07T05:49:09;3.80;99.90
7360;DHT22;3720;48.274;7.796;2022-12-07T05:51:42;3.80;99.90
7360;DHT22;3720;48.274;7.796;2022-12-07T05:54:14;3.80;99.90
7360;DHT22;3720;48.274;7.796;2022-12-07T05:56:47;3.80;99.90
7360;DHT22;3720;48.274;7.796;2022-12-07T05:59:19;3.80;99.90
7360;DHT22;3720;48.274;7.796;2022-12-07T06:01:54;3.80;99.90
7360;DHT22;3720;48.274;7.796;2022-12-07T06:04:28;3.70;99.90
7360;DHT22;3720;48.274;7.796;2022-12-07T06:07:03;3.60;99.90
7360;DHT22;3720;48.274;7.796;2022-12-07T06:09:35;3.60;99.90
7360;DHT22;3720;48.274;7.796;2022-12-07T06:12:10;3.50;99.90
7360;DHT22;3720;48.274;7.796;2022-12-07T06:14:59;3.50;99.90
7360;DHT22;3720;48.274;7.796;2022-12-07T06:17:31;3.50;99.90
7360;DHT22;3720;48.274;7.796;2022-12-07T06:20:04;3.50;99.90
7360;DHT22;3720;48.274;7.796;2022-12-07T06:22:37;3.40;99.90
7360;DHT22;3720;48.274;7.796;2022-12-07T06:25:09;3.30;99.90
7360;DHT22;3720;48.274;7.796;2022-12-07T06:27:41;3.30;99.90
7360;DHT22;3720;48.274;7.796;2022-12-07T06:30:13;3.20;99.90
7360;DHT22;3720;48.274;7.796;2022-12-07T06:32:45;3.10;99.90
7360;DHT22;3720;48.274;7.796;2022-12-07T06:35:17;3.00;99.90
7360;DHT22;3720;48.274;7.796;2022-12-07T06:37:50;3.00;99.90
7360;DHT22;3720;48.274;7.796;2022-12-07T06:40:22;2.90;99.90
7360;DHT22;3720;48.274;7.796;2022-12-07T06:42:54;2.90;99.90
7360;DHT22;3720;48.274;7.796;2022-12-07T06:45:26;2.90;99.90
7360;DHT22;3720;48.274;7.796;2022-12-07T06:47:58;2.90;99.90
7360;DHT22;3720;48.274;7.796;2022-12-07T06:50:30;2.90;99.90
7360;DHT22;3720;48.274;7.796;2022-12-07T06:53:04;2.80;99.90
7360;DHT22;3720;48.274;7.796;2022-12-07T06:55:36;2.70;99.90
7360;DHT22;3720;48.274;7.796;2022-12-07T06:58:08;2.60;99.90
7360;DHT22;3720;48.274;7.796;2022-12-07T07:00:40;2.60;99.90
7360;DHT22;3720;48.274;7.796;2022-12-07T07:03:12;2.60;99.90
7360;DHT22;3720;48.274;7.796;2022-12-07T07:05:44;2.60;99.90
7360;DHT22;3720;48.274;7.796;2022-12-07T07:08:18;2.50;99.90
7360;DHT22;3720;48.274;7.796;2022-12-07T07:10:50;2.40;99.90
7360;DHT22;3720;48.274;7.796;2022-12-07T07:13:22;2.40;99.90
7360;DHT22;3720;48.274;7.796;2022-12-07T07:15:54;2.30;99.90
7360;DHT22;3720;48.274;7.796;2022-12-07T07:18:27;2.30;99.90
7360;DHT22;3720;48.274;7.796;2022-12-07T07:20:59;2.30;99.90
7360;DHT22;3720;48.274;7.796;2022-12-07T07:23:32;2.20;99.90
7360;DHT22;3720;48.274;7.796;2022-12-07T07:26:04;2.20;99.90
7360;DHT22;3720;48.274;7.796;2022-12-07T07:28:36;2.10;99.90
7360;DHT22;3720;48.274;7.796;2022-12-07T07:31:09;2.10;99.90
7360;DHT22;3720;48.274;7.796;2022-12-07T07:33:40;2.10;99.90
7360;DHT22;3720;48.274;7.796;2022-12-07T07:36:13;2.10;99.90
7360;DHT22;3720;48.274;7.796;2022-12-07T07:38:46;2.10;99.90
7360;DHT22;3720;48.274;7.796;2022-12-07T07:41:18;2.00;99.90
7360;DHT22;3720;48.274;7.796;2022-12-07T07:43:50;2.00;99.90
7360;DHT22;3720;48.274;7.796;2022-12-07T07:46:22;2.00;99.90
7360;DHT22;3720;48.274;7.796;2022-12-07T07:48:54;2.00;99.90
7360;DHT22;3720;48.274;7.796;2022-12-07T07:51:25;2.00;99.90
7360;DHT22;3720;48.274;7.796;2022-12-07T07:53:59;2.10;99.90
7360;DHT22;3720;48.274;7.796;2022-12-07T07:56:31;2.20;99.90
7360;DHT22;3720;48.274;7.796;2022-12-07T07:59:03;2.30;99.90
7360;DHT22;3720;48.274;7.796;2022-12-07T08:01:35;2.40;99.90
7360;DHT22;3720;48.274;7.796;2022-12-07T08:04:07;2.50;99.90
7360;DHT22;3720;48.274;7.796;2022-12-07T08:06:39;2.50;99.90
7360;DHT22;3720;48.274;7.796;2022-12-07T08:09:14;2.60;99.90
7360;DHT22;3720;48.274;7.796;2022-12-07T08:11:45;2.60;99.90
7360;DHT22;3720;48.274;7.796;2022-12-07T08:14:18;2.60;99.90
7360;DHT22;3720;48.274;7.796;2022-12-07T08:16:49;2.60;99.90
7360;DHT22;3720;48.274;7.796;2022-12-07T08:19:22;2.60;99.90
7360;DHT22;3720;48.274;7.796;2022-12-07T08:21:54;2.60;99.90
7360;DHT22;3720;48.274;7.796;2022-12-07T08:24:28;2.60;99.90
7360;DHT22;3720;48.274;7.796;2022-12-07T08:27:00;2.70;99.90
7360;DHT22;3720;48.274;7.796;2022-12-07T08:29:32;2.90;99.90
7360;DHT22;3720;48.274;7.796;2022-12-07T08:32:04;2.90;99.90
7360;DHT22;3720;48.274;7.796;2022-12-07T08:34:36;2.90;99.90
7360;DHT22;3720;48.274;7.796;2022-12-07T08:37:08;3.00;99.90
7360;DHT22;3720;48.274;7.796;2022-12-07T08:39:41;3.00;99.90
7360;DHT22;3720;48.274;7.796;2022-12-07T08:42:13;3.10;99.90
7360;DHT22;3720;48.274;7.796;2022-12-07T08:44:45;3.20;99.90
7360;DHT22;3720;48.274;7.796;2022-12-07T08:47:17;3.30;99.90
7360;DHT22;3720;48.274;7.796;2022-12-07T08:49:50;3.40;99.90
7360;DHT22;3720;48.274;7.796;2022-12-07T08:52:23;3.60;99.90
7360;DHT22;3720;48.274;7.796;2022-12-07T08:54:56;3.80;99.90
7360;DHT22;3720;48.274;7.796;2022-12-07T08:57:29;4.10;99.90
7360;DHT22;3720;48.274;7.796;2022-12-07T09:00:03;4.40;99.90
7360;DHT22;3720;48.274;7.796;2022-12-07T09:02:35;4.70;99.90
7360;DHT22;3720;48.274;7.796;2022-12-07T09:05:08;5.00;99.90
7360;DHT22;3720;48.274;7.796;2022-12-07T09:07:40;5.10;99.90
7360;DHT22;3720;48.274;7.796;2022-12-07T09:10:14;5.20;99.90
7360;DHT22;3720;48.274;7.796;2022-12-07T09:12:46;5.30;99.90
7360;DHT22;3720;48.274;7.796;2022-12-07T09:15:18;5.40;99.90
7360;DHT22;3720;48.274;7.796;2022-12-07T09:17:51;5.60;99.90
7360;DHT22;3720;48.274;7.796;2022-12-07T09:20:23;5.80;99.90
7360;DHT22;3720;48.274;7.796;2022-12-07T09:22:55;6.00;99.90
7360;DHT22;3720;48.274;7.796;2022-12-07T09:25:29;6.10;99.90
7360;DHT22;3720;48.274;7.796;2022-12-07T09:28:01;6.20;99.90
7360;DHT22;3720;48.274;7.796;2022-12-07T09:30:33;6.20;99.90
7360;DHT22;3720;48.274;7.796;2022-12-07T09:33:04;6.20;99.90
7360;DHT22;3720;48.274;7.796;2022-12-07T09:35:36;6.30;99.90
7360;DHT22;3720;48.274;7.796;2022-12-07T09:38:08;6.40;99.90
7360;DHT22;3720;48.274;7.796;2022-12-07T09:40:42;6.60;99.90
7360;DHT22;3720;48.274;7.796;2022-12-07T09:43:16;6.60;99.90
7360;DHT22;3720;48.274;7.796;2022-12-07T09:45:51;6.50;99.90
7360;DHT22;3720;48.274;7.796;2022-12-07T09:48:29;6.40;99.90
7360;DHT22;3720;48.274;7.796;2022-12-07T09:51:02;6.30;99.90
7360;DHT22;3720;48.274;7.796;2022-12-07T09:53:36;6.20;99.90
7360;DHT22;3720;48.274;7.796;2022-12-07T09:56:12;6.10;99.90
7360;DHT22;3720;48.274;7.796;2022-12-07T09:58:45;6.00;99.90
7360;DHT22;3720;48.274;7.796;2022-12-07T10:01:20;6.00;99.90
7360;DHT22;3720;48.274;7.796;2022-12-07T10:03:54;6.00;99.90
7360;DHT22;3720;48.274;7.796;2022-12-07T10:06:26;6.00;99.90
7360;DHT22;3720;48.274;7.796;2022-12-07T10:08:58;5.90;99.90
7360;DHT22;3720;48.274;7.796;2022-12-07T10:11:31;5.90;99.90
7360;DHT22;3720;48.274;7.796;2022-12-07T10:14:11;5.90;99.90
7360;DHT22;3720;48.274;7.796;2022-12-07T10:16:44;6.00;99.90
7360;DHT22;3720;48.274;7.796;2022-12-07T10:19:24;6.10;99.90
7360;DHT22;3720;48.274;7.796;2022-12-07T10:22:04;6.10;99.90
7360;DHT22;3720;48.274;7.796;2022-12-07T10:24:36;6.00;99.90
7360;DHT22;3720;48.274;7.796;2022-12-07T10:27:30;6.00;99.90
7360;DHT22;3720;48.274;7.796;2022-12-07T10:30:07;6.00;99.90
7360;DHT22;3720;48.274;7.796;2022-12-07T10:32:40;5.90;99.90
7360;DHT22;3720;48.274;7.796;2022-12-07T10:35:23;5.90;99.90
7360;DHT22;3720;48.274;7.796;2022-12-07T10:37:58;5.90;99.90
7360;DHT22;3720;48.274;7.796;2022-12-07T10:40:32;5.90;99.90
7360;DHT22;3720;48.274;7.796;2022-12-07T10:43:18;5.90;99.90
7360;DHT22;3720;48.274;7.796;2022-12-07T10:46:18;6.00;99.90
7360;DHT22;3720;48.274;7.796;2022-12-07T10:49:01;6.00;99.90
7360;DHT22;3720;48.274;7.796;2022-12-07T10:51:40;6.10;99.90
7360;DHT22;3720;48.274;7.796;2022-12-07T10:54:22;6.10;99.90
7360;DHT22;3720;48.274;7.796;2022-12-07T10:57:16;6.20;99.90
7360;DHT22;3720;48.274;7.796;2022-12-07T11:00:01;6.20;99.90
7360;DHT22;3720;48.274;7.796;2022-12-07T11:02:45;6.30;99.90
7360;DHT22;3720;48.274;7.796;2022-12-07T11:05:27;6.30;99.90
7360;DHT22;3720;48.274;7.796;2022-12-07T11:08:09;6.30;99.90
7360;DHT22;3720;48.274;7.796;2022-12-07T11:10:49;6.40;99.90
7360;DHT22;3720;48.274;7.796;2022-12-07T11:13:27;6.40;99.90
7360;DHT22;3720;48.274;7.796;2022-12-07T11:16:16;6.50;99.90
7360;DHT22;3720;48.274;7.796;2022-12-07T11:19:04;6.50;99.90
7360;DHT22;3720;48.274;7.796;2022-12-07T11:21:43;6.50;99.90
7360;DHT22;3720;48.274;7.796;2022-12-07T11:24:19;6.50;99.90
7360;DHT22;3720;48.274;7.796;2022-12-07T11:27:04;6.60;99.90
7360;DHT22;3720;48.274;7.796;2022-12-07T11:30:01;6.60;99.90
7360;DHT22;3720;48.274;7.796;2022-12-07T11:32:47;6.60;99.90
7360;DHT22;3720;48.274;7.796;2022-12-07T11:35:29;6.60;99.90
7360;DHT22;3720;48.274;7.796;2022-12-07T11:38:14;6.60;99.90
7360;DHT22;3720;48.274;7.796;2022-12-07T11:40:49;6.70;99.90
7360;DHT22;3720;48.274;7.796;2022-12-07T11:43:25;6.70;99.90
7360;DHT22;3720;48.274;7.796;2022-12-07T11:46:03;6.70;99.90
7360;DHT22;3720;48.274;7.796;2022-12-07T11:48:40;6.70;99.90
7360;DHT22;3720;48.274;7.796;2022-12-07T11:51:13;6.70;99.90
7360;DHT22;3720;48.274;7.796;2022-12-07T11:53:51;6.70;99.90
7360;DHT22;3720;48.274;7.796;2022-12-07T11:56:26;6.70;99.90
7360;DHT22;3720;48.274;7.796;2022-12-07T11:59:00;6.60;99.90
7360;DHT22;3720;48.274;7.796;2022-12-07T12:01:42;6.70;99.90
7360;DHT22;3720;48.274;7.796;2022-12-07T12:04:32;6.70;99.90
7360;DHT22;3720;48.274;7.796;2022-12-07T12:07:06;6.70;99.90
7360;DHT22;3720;48.274;7.796;2022-12-07T12:09:45;6.80;99.90
7360;DHT22;3720;48.274;7.796;2022-12-07T12:12:37;6.80;99.90
7360;DHT22;3720;48.274;7.796;2022-12-07T12:15:22;6.70;99.90
7360;DHT22;3720;48.274;7.796;2022-12-07T12:18:10;6.70;99.90
7360;DHT22;3720;48.274;7.796;2022-12-07T12:20:47;6.80;99.90
7360;DHT22;3720;48.274;7.796;2022-12-07T12:23:22;6.80;99.90
7360;DHT22;3720;48.274;7.796;2022-12-07T12:25:57;6.80;99.90
7360;DHT22;3720;48.274;7.796;2022-12-07T12:28:40;6.80;99.90
7360;DHT22;3720;48.274;7.796;2022-12-07T12:31:15;6.80;99.90
7360;DHT22;3720;48.274;7.796;2022-12-07T12:33:50;6.80;99.90
7360;DHT22;3720;48.274;7.796;2022-12-07T12:36:27;6.80;99.90
7360;DHT22;3720;48.274;7.796;2022-12-07T12:39:15;6.80;99.90
7360;DHT22;3720;48.274;7.796;2022-12-07T12:41:55;6.80;99.90
7360;DHT22;3720;48.274;7.796;2022-12-07T12:45:11;6.90;99.90
7360;DHT22;3720;48.274;7.796;2022-12-07T12:47:59;7.00;99.90
7360;DHT22;3720;48.274;7.796;2022-12-07T12:50:32;7.00;99.90
7360;DHT22;3720;48.274;7.796;2022-12-07T12:53:21;7.10;99.90
7360;DHT22;3720;48.274;7.796;2022-12-07T12:56:25;7.20;99.90
7360;DHT22;3720;48.274;7.796;2022-12-07T12:59:23;7.20;99.90
7360;DHT22;3720;48.274;7.796;2022-12-07T13:02:10;7.30;99.90
7360;DHT22;3720;48.274;7.796;2022-12-07T13:04:52;7.40;99.90
7360;DHT22;3720;48.274;7.796;2022-12-07T13:07:56;7.40;99.90
7360;DHT22;3720;48.274;7.796;2022-12-07T13:10:36;7.50;99.90
7360;DHT22;3720;48.274;7.796;2022-12-07T13:13:31;7.50;99.90
7360;DHT22;3720;48.274;7.796;2022-12-07T13:22:49;7.60;99.90
7360;DHT22;3720;48.274;7.796;2022-12-07T13:25:38;7.60;99.90
7360;DHT22;3720;48.274;7.796;2022-12-07T13:28:17;7.70;99.90
7360;DHT22;3720;48.274;7.796;2022-12-07T13:31:00;7.70;99.90
7360;DHT22;3720;48.274;7.796;2022-12-07T13:33:35;7.70;99.90
7360;DHT22;3720;48.274;7.796;2022-12-07T13:36:16;7.80;99.90
7360;DHT22;3720;48.274;7.796;2022-12-07T13:38:55;7.80;99.90
7360;DHT22;3720;48.274;7.796;2022-12-07T13:41:29;7.90;99.90
7360;DHT22;3720;48.274;7.796;2022-12-07T13:44:03;7.90;99.90
7360;DHT22;3720;48.274;7.796;2022-12-07T13:46:44;7.90;99.90
7360;DHT22;3720;48.274;7.796;2022-12-07T13:49:20;7.90;99.90
7360;DHT22;3720;48.274;7.796;2022-12-07T13:51:54;7.90;99.90
7360;DHT22;3720;48.274;7.796;2022-12-07T13:54:27;8.00;99.90
7360;DHT22;3720;48.274;7.796;2022-12-07T13:57:00;8.00;99.90
7360;DHT22;3720;48.274;7.796;2022-12-07T13:59:32;8.30;99.90
7360;DHT22;3720;48.274;7.796;2022-12-07T14:02:18;8.60;99.90
7360;DHT22;3720;48.274;7.796;2022-12-07T14:04:51;9.10;99.90
7360;DHT22;3720;48.274;7.796;2022-12-07T14:07:25;9.40;99.90
7360;DHT22;3720;48.274;7.796;2022-12-07T14:09:59;9.80;99.90
7360;DHT22;3720;48.274;7.796;2022-12-07T14:12:36;10.10;99.90
7360;DHT22;3720;48.274;7.796;2022-12-07T14:15:20;10.30;99.90
7360;DHT22;3720;48.274;7.796;2022-12-07T14:17:54;10.40;99.90
7360;DHT22;3720;48.274;7.796;2022-12-07T14:20:31;10.60;99.90
7360;DHT22;3720;48.274;7.796;2022-12-07T14:23:04;10.70;99.90
7360;DHT22;3720;48.274;7.796;2022-12-07T14:25:47;10.60;99.90
7360;DHT22;3720;48.274;7.796;2022-12-07T14:28:28;10.60;99.90
7360;DHT22;3720;48.274;7.796;2022-12-07T14:31:01;10.60;99.90
7360;DHT22;3720;48.274;7.796;2022-12-07T14:33:34;10.60;99.90
7360;DHT22;3720;48.274;7.796;2022-12-07T14:36:07;10.70;99.90
7360;DHT22;3720;48.274;7.796;2022-12-07T14:38:40;10.70;99.90
7360;DHT22;3720;48.274;7.796;2022-12-07T14:41:15;10.80;99.90
7360;DHT22;3720;48.274;7.796;2022-12-07T14:44:10;10.90;99.90
7360;DHT22;3720;48.274;7.796;2022-12-07T14:46:42;11.00;99.90
7360;DHT22;3720;48.274;7.796;2022-12-07T14:49:15;11.00;99.90
7360;DHT22;3720;48.274;7.796;2022-12-07T14:51:48;11.00;99.90
7360;DHT22;3720;48.274;7.796;2022-12-07T14:54:20;11.00;99.90
7360;DHT22;3720;48.274;7.796;2022-12-07T14:56:53;11.00;99.90
7360;DHT22;3720;48.274;7.796;2022-12-07T14:59:27;11.00;99.90
7360;DHT22;3720;48.274;7.796;2022-12-07T15:01:59;10.90;99.90
7360;DHT22;3720;48.274;7.796;2022-12-07T15:04:31;10.70;99.90
7360;DHT22;3720;48.274;7.796;2022-12-07T15:07:04;10.40;99.90
7360;DHT22;3720;48.274;7.796;2022-12-07T15:09:37;10.20;99.90
7360;DHT22;3720;48.274;7.796;2022-12-07T15:12:09;10.00;99.90
7360;DHT22;3720;48.274;7.796;2022-12-07T15:14:42;9.70;99.90
7360;DHT22;3720;48.274;7.796;2022-12-07T15:17:14;9.50;99.90
7360;DHT22;3720;48.274;7.796;2022-12-07T15:19:46;9.30;99.90
7360;DHT22;3720;48.274;7.796;2022-12-07T15:22:18;9.10;99.90
7360;DHT22;3720;48.274;7.796;2022-12-07T15:24:49;8.90;99.90
7360;DHT22;3720;48.274;7.796;2022-12-07T15:27:21;8.70;99.90
7360;DHT22;3720;48.274;7.796;2022-12-07T15:29:55;8.50;99.90
7360;DHT22;3720;48.274;7.796;2022-12-07T15:32:27;8.40;99.90
7360;DHT22;3720;48.274;7.796;2022-12-07T15:34:59;8.30;99.90
7360;DHT22;3720;48.274;7.796;2022-12-07T15:37:31;8.20;99.90
7360;DHT22;3720;48.274;7.796;2022-12-07T15:40:03;8.20;99.90
7360;DHT22;3720;48.274;7.796;2022-12-07T15:42:36;8.00;99.90
7360;DHT22;3720;48.274;7.796;2022-12-07T15:45:10;8.00;99.90
7360;DHT22;3720;48.274;7.796;2022-12-07T15:47:43;7.90;99.90
7360;DHT22;3720;48.274;7.796;2022-12-07T15:50:16;7.90;99.90
7360;DHT22;3720;48.274;7.796;2022-12-07T15:52:48;7.80;99.90
7360;DHT22;3720;48.274;7.796;2022-12-07T15:55:20;7.70;99.90
7360;DHT22;3720;48.274;7.796;2022-12-07T15:57:52;7.60;99.90
7360;DHT22;3720;48.274;7.796;2022-12-07T16:00:25;7.50;99.90
7360;DHT22;3720;48.274;7.796;2022-12-07T16:02:57;7.40;99.90
7360;DHT22;3720;48.274;7.796;2022-12-07T16:05:29;7.30;99.90
7360;DHT22;3720;48.274;7.796;2022-12-07T16:08:01;7.20;99.90
7360;DHT22;3720;48.274;7.796;2022-12-07T16:10:33;7.10;99.90
7360;DHT22;3720;48.274;7.796;2022-12-07T16:13:05;6.90;99.90
7360;DHT22;3720;48.274;7.796;2022-12-07T16:15:39;6.80;99.90
7360;DHT22;3720;48.274;7.796;2022-12-07T16:18:11;6.70;99.90
7360;DHT22;3720;48.274;7.796;2022-12-07T16:20:43;6.70;99.90
7360;DHT22;3720;48.274;7.796;2022-12-07T16:23:15;6.60;99.90
7360;DHT22;3720;48.274;7.796;2022-12-07T16:25:47;6.60;99.90
7360;DHT22;3720;48.274;7.796;2022-12-07T16:28:19;6.60;99.90
7360;DHT22;3720;48.274;7.796;2022-12-07T16:31:02;6.50;99.90
7360;DHT22;3720;48.274;7.796;2022-12-07T16:33:34;6.50;99.90
7360;DHT22;3720;48.274;7.796;2022-12-07T16:36:08;6.40;99.90
7360;DHT22;3720;48.274;7.796;2022-12-07T16:38:40;6.40;99.90
7360;DHT22;3720;48.274;7.796;2022-12-07T16:41:12;6.40;99.90
7360;DHT22;3720;48.274;7.796;2022-12-07T16:43:44;6.30;99.90
7360;DHT22;3720;48.274;7.796;2022-12-07T16:46:17;6.30;99.90
7360;DHT22;3720;48.274;7.796;2022-12-07T16:48:49;6.30;99.90
7360;DHT22;3720;48.274;7.796;2022-12-07T16:51:23;6.30;99.90
7360;DHT22;3720;48.274;7.796;2022-12-07T16:53:55;6.30;99.90
7360;DHT22;3720;48.274;7.796;2022-12-07T16:56:27;6.30;99.90
7360;DHT22;3720;48.274;7.796;2022-12-07T16:58:59;6.30;99.90
7360;DHT22;3720;48.274;7.796;2022-12-07T17:01:33;6.30;99.90
7360;DHT22;3720;48.274;7.796;2022-12-07T17:04:06;6.30;99.90
7360;DHT22;3720;48.274;7.796;2022-12-07T17:06:42;6.30;99.90
7360;DHT22;3720;48.274;7.796;2022-12-07T17:09:14;6.30;99.90
7360;DHT22;3720;48.274;7.796;2022-12-07T17:11:46;6.30;99.90
7360;DHT22;3720;48.274;7.796;2022-12-07T17:14:18;6.30;99.90
7360;DHT22;3720;48.274;7.796;2022-12-07T17:17:08;6.30;99.90
7360;DHT22;3720;48.274;7.796;2022-12-07T17:19:40;6.30;99.90
7360;DHT22;3720;48.274;7.796;2022-12-07T17:22:12;6.20;99.90